createdAt,value
2022-11-22T00:03:43.540Z,98910.69
2022-11-22T00:08:46.141Z,98904.16
2022-11-22T00:13:50.448Z,98914.69
2022-11-22T00:18:52.963Z,98919.00
2022-11-22T00:23:57.243Z,98925.31
2022-11-22T00:29:01.541Z,98919.56
2022-11-22T00:34:06.042Z,98804.59
2022-11-22T00:39:09.357Z,98918.47
2022-11-22T00:44:13.359Z,98929.25
2022-11-22T00:49:15.902Z,98942.41
2022-11-22T00:54:18.445Z,98936.84
2022-11-22T00:59:22.356Z,98917.63
2022-11-22T01:04:26.643Z,98903.50
2022-11-22T01:09:29.526Z,98826.78
2022-11-22T01:14:33.786Z,98941.22
2022-11-22T01:19:36.343Z,98939.53
2022-11-22T01:24:39.311Z,98952.31
2022-11-22T01:29:43.197Z,98930.41
2022-11-22T01:34:45.961Z,98935.78
2022-11-22T01:39:48.680Z,98946.09
2022-11-22T01:44:54.620Z,98953.44
2022-11-22T01:50:01.359Z,98943.63
2022-11-22T01:55:08.356Z,98841.94
2022-11-22T02:05:43.464Z,98828.28
2022-11-22T02:10:49.438Z,98939.53
2022-11-22T02:15:53.430Z,98951.09
2022-11-22T02:20:59.032Z,98956.47
2022-11-22T02:26:04.212Z,98960.75
2022-11-22T02:31:06.954Z,98960.81
2022-11-22T02:36:12.814Z,98973.34
2022-11-22T02:41:16.699Z,98980.41
2022-11-22T02:46:22.561Z,98983.56
2022-11-22T02:51:26.388Z,98983.00
2022-11-22T02:56:30.723Z,98980.03
2022-11-22T03:01:33.431Z,98988.03
2022-11-22T03:06:36.186Z,98968.88
2022-11-22T03:11:40.243Z,99004.47
2022-11-22T03:16:42.962Z,99014.53
2022-11-22T03:21:45.748Z,99018.00
2022-11-22T03:26:50.703Z,99030.50
2022-11-22T03:31:53.367Z,99033.97
2022-11-22T03:36:56.039Z,99039.47
2022-11-22T03:42:00.007Z,99045.69
2022-11-22T03:47:02.582Z,99041.25
2022-11-22T03:52:05.394Z,99053.72
2022-11-22T03:57:09.424Z,99057.03
2022-11-22T04:02:11.990Z,99053.22
2022-11-22T04:07:15.072Z,99048.66
2022-11-22T04:12:18.963Z,99071.75
2022-11-22T04:17:35.908Z,99069.13
2022-11-22T04:22:38.632Z,99067.94
2022-11-22T04:27:42.663Z,99069.97
2022-11-22T04:32:47.912Z,99075.72
2022-11-22T04:37:51.060Z,99052.69
2022-11-22T04:43:12.364Z,99077.53
2022-11-22T04:48:15.221Z,99089.97
2022-11-22T04:53:19.380Z,99088.56
2022-11-22T04:58:24.370Z,99091.44
2022-11-22T05:03:26.910Z,99104.81
2022-11-22T05:08:29.692Z,99102.53
2022-11-22T05:13:36.117Z,99099.56
2022-11-22T05:18:39.195Z,99094.53
2022-11-22T05:23:57.455Z,99095.16
2022-11-22T05:29:06.040Z,99091.41
2022-11-22T05:34:08.687Z,99107.44
2022-11-22T05:39:11.347Z,99081.03
2022-11-22T05:44:15.209Z,99110.31
2022-11-22T05:49:17.770Z,99114.63
2022-11-22T05:54:20.468Z,99114.72
2022-11-22T05:59:24.491Z,99113.06
2022-11-22T06:04:27.020Z,99116.53
2022-11-22T06:09:29.797Z,99119.97
2022-11-22T06:14:41.562Z,99106.56
2022-11-22T06:19:45.849Z,99125.03
2022-11-22T06:24:48.470Z,99125.75
2022-11-22T06:29:52.504Z,99136.13
2022-11-22T06:34:55.046Z,99142.34
2022-11-22T06:39:57.606Z,99140.41
2022-11-22T06:45:01.655Z,99129.06
2022-11-22T06:50:04.606Z,99127.75
2022-11-22T06:55:08.369Z,99133.47
2022-11-22T07:00:14.622Z,99137.06
2022-11-22T07:05:25.569Z,99147.38
2022-11-22T07:10:29.216Z,99143.19
2022-11-22T07:15:33.111Z,99153.81
2022-11-22T07:20:35.776Z,99150.72
2022-11-22T07:25:38.907Z,99147.25
2022-11-22T07:30:44.309Z,99142.94
2022-11-22T07:35:47.191Z,99157.66
2022-11-22T07:40:50.068Z,99174.38
2022-11-22T07:45:54.432Z,99181.78
2022-11-22T07:50:57.041Z,99191.34
2022-11-22T07:56:02.134Z,99189.91
2022-11-22T08:01:10.755Z,99186.84
2022-11-22T08:06:14.543Z,99184.91
2022-11-22T08:11:17.073Z,99181.44
2022-11-22T08:16:20.972Z,99184.41
2022-11-22T08:21:23.523Z,99175.97
2022-11-22T08:26:26.066Z,99184.91
2022-11-22T08:31:30.281Z,99181.81
2022-11-22T08:36:33.753Z,99171.75
2022-11-22T08:41:36.319Z,99190.31
2022-11-22T08:46:40.331Z,99199.88
2022-11-22T08:51:44.854Z,99199.59
2022-11-22T08:56:47.387Z,99205.94
2022-11-22T09:01:51.375Z,99223.78
2022-11-22T09:12:16.802Z,99218.88
2022-11-22T09:17:20.707Z,99219.13
2022-11-22T09:22:28.304Z,99180.19
2022-11-22T09:27:31.183Z,99221.00
2022-11-22T09:32:35.070Z,99234.88
2022-11-22T09:37:37.666Z,99232.81
2022-11-22T09:42:56.452Z,99235.91
2022-11-22T09:48:10.071Z,99225.59
2022-11-22T09:53:19.197Z,99227.75
2022-11-22T09:58:30.839Z,99220.75
2022-11-22T10:03:49.075Z,99217.53
2022-11-22T10:09:09.400Z,99216.19
2022-11-22T10:14:23.472Z,99221.25
2022-11-22T10:19:35.733Z,99209.03
2022-11-22T10:24:38.322Z,99204.34
2022-11-22T10:29:47.669Z,99187.63
2022-11-22T10:35:10.741Z,99186.78
2022-11-22T10:40:21.597Z,99174.50
2022-11-22T10:45:30.365Z,99159.94
2022-11-22T10:50:48.590Z,99170.50
2022-11-22T10:55:58.290Z,99164.13
2022-11-22T11:01:06.927Z,99153.84
2022-11-22T11:06:29.632Z,99154.84
2022-11-22T11:11:42.968Z,99143.91
2022-11-22T11:16:46.108Z,99140.19
2022-11-22T11:21:58.183Z,99114.88
2022-11-22T11:27:01.503Z,99136.69
2022-11-22T11:32:09.621Z,99119.06
2022-11-22T11:37:25.046Z,99138.94
2022-11-22T11:42:30.205Z,99140.28
2022-11-22T11:47:34.419Z,99133.22
2022-11-22T11:52:38.502Z,99122.09
2022-11-22T11:57:45.166Z,99127.25
2022-11-22T12:02:50.573Z,99129.91
2022-11-22T12:07:54.651Z,99132.53
2022-11-22T12:13:04.400Z,99130.47
2022-11-22T12:18:23.817Z,99131.28
2022-11-22T12:23:37.168Z,99128.66
2022-11-22T12:28:40.244Z,99122.16
2022-11-22T12:33:44.702Z,99125.78
2022-11-22T12:38:51.366Z,99122.31
2022-11-22T12:43:56.443Z,99130.69
2022-11-22T12:49:03.614Z,99130.97
2022-11-22T12:54:15.199Z,99127.44
2022-11-22T12:59:29.005Z,99127.44
2022-11-22T13:04:42.089Z,99130.72
2022-11-22T13:09:52.270Z,99128.91
2022-11-22T13:14:56.520Z,99127.03
2022-11-22T13:20:04.165Z,99145.41
2022-11-22T13:25:37.201Z,99145.66
2022-11-22T13:30:40.429Z,99125.38
2022-11-22T13:35:43.215Z,99136.91
2022-11-22T13:40:50.427Z,99044.91
2022-11-22T13:45:54.816Z,99118.66
2022-11-22T13:51:01.652Z,99131.88
2022-11-22T13:56:43.857Z,99147.28
2022-11-22T14:01:59.990Z,99096.50
2022-11-22T14:07:06.618Z,99135.75
2022-11-22T14:12:39.558Z,99135.06
2022-11-22T14:17:51.422Z,99130.72
2022-11-22T14:22:59.772Z,99132.53
2022-11-22T14:28:15.159Z,99136.16
2022-11-22T14:33:21.397Z,99125.59
2022-11-22T14:38:33.545Z,99129.22
2022-11-22T14:43:38.711Z,99103.03
2022-11-22T14:48:50.878Z,99134.50
2022-11-22T14:53:56.472Z,99129.91
2022-11-22T14:59:07.990Z,99139.47
2022-11-22T15:09:11.239Z,99137.06
2022-11-22T15:10:49.874Z,99135.00
2022-11-22T15:59:48.446Z,99141.72
2022-11-22T16:06:07.200Z,99159.06
2022-11-22T16:10:22.391Z,99174.91
2022-11-22T16:15:29.329Z,99180.72
2022-11-22T16:20:34.028Z,99175.56
2022-11-22T16:25:40.567Z,99184.81
2022-11-22T16:30:43.700Z,99082.94
2022-11-22T16:35:46.517Z,99188.50
2022-11-22T16:40:51.365Z,99195.53
2022-11-22T16:45:54.034Z,99187.41
2022-11-22T16:50:59.322Z,99206.66
2022-11-22T16:56:03.182Z,99208.97
2022-11-22T17:01:06.133Z,99197.56
2022-11-22T17:06:16.104Z,99215.78
2022-11-22T17:11:21.218Z,99210.03
2022-11-22T17:16:24.439Z,99219.88
2022-11-22T17:21:31.519Z,99219.44
2022-11-22T17:26:42.730Z,99226.13
2022-11-22T17:31:48.984Z,99228.97
2022-11-22T17:36:51.526Z,99232.94
2022-11-22T17:41:58.836Z,99231.63
2022-11-22T17:47:01.540Z,99236.56
2022-11-22T17:52:04.654Z,99123.38
2022-11-22T17:57:09.612Z,99251.03
2022-11-22T18:02:12.836Z,99244.28
2022-11-22T18:07:15.510Z,99252.81
2022-11-22T18:12:20.017Z,99247.66
2022-11-22T18:17:22.871Z,99254.09
2022-11-22T18:22:25.755Z,99225.88
2022-11-22T18:27:29.934Z,99269.44
2022-11-22T18:32:32.597Z,99257.22
2022-11-22T18:37:35.265Z,99272.09
2022-11-22T18:42:40.528Z,99244.78
2022-11-22T18:47:44.527Z,99267.25
2022-11-22T18:52:47.255Z,99243.94
2022-11-22T18:57:52.054Z,99248.34
2022-11-22T19:02:54.730Z,99267.25
2022-11-22T19:07:57.456Z,99264.50
2022-11-22T19:13:01.507Z,99269.50
2022-11-22T19:18:04.804Z,99285.13
2022-11-22T19:23:08.059Z,99279.63
2022-11-22T19:28:12.037Z,99278.16
2022-11-22T19:33:16.650Z,99262.72
2022-11-22T19:38:19.668Z,99273.22
2022-11-22T19:43:23.868Z,99262.03
2022-11-22T19:48:26.542Z,99273.97
2022-11-22T19:53:29.099Z,99254.50
2022-11-22T19:58:33.619Z,99198.19
2022-11-22T20:03:37.681Z,99246.19
2022-11-22T20:08:41.396Z,99257.28
2022-11-22T20:13:47.572Z,99254.13
2022-11-22T20:18:54.280Z,99257.50
2022-11-22T20:23:57.006Z,99282.69
2022-11-22T20:29:03.466Z,99263.25
2022-11-22T20:34:06.168Z,99297.44
2022-11-22T20:39:10.802Z,99264.41
2022-11-22T20:44:15.301Z,99290.34
2022-11-22T20:49:17.983Z,99295.00
2022-11-22T20:54:20.851Z,99237.97
2022-11-22T20:59:24.741Z,99294.03
2022-11-22T21:04:27.401Z,99307.22
2022-11-22T21:09:30.379Z,99307.22
2022-11-22T21:14:34.429Z,99304.13
2022-11-22T21:19:38.520Z,99201.91
2022-11-22T21:24:45.784Z,99303.63
2022-11-22T21:29:51.610Z,99292.59
2022-11-22T21:34:54.580Z,99305.75
2022-11-22T21:39:57.195Z,99305.63
2022-11-22T21:45:01.244Z,99299.75
2022-11-22T21:50:10.062Z,99305.13
2022-11-22T21:55:15.324Z,99316.81
2022-11-22T22:00:19.853Z,99321.28
2022-11-22T22:05:22.712Z,99292.56
2022-11-22T22:10:25.244Z,99313.47
2022-11-22T22:15:29.287Z,99326.69
2022-11-22T22:20:31.851Z,99325.28
2022-11-22T22:25:34.543Z,99328.44
2022-11-22T22:30:38.440Z,99328.81
2022-11-22T22:35:41.290Z,99336.19
2022-11-22T22:40:43.807Z,99335.13
2022-11-22T22:45:47.774Z,99341.47
2022-11-22T22:50:50.309Z,99337.38
2022-11-22T22:55:56.068Z,99337.88
2022-11-22T23:01:06.882Z,99338.56
2022-11-22T23:06:11.917Z,99335.69
2022-11-22T23:11:15.763Z,99341.91
2022-11-22T23:16:19.636Z,99355.97
2022-11-22T23:21:22.147Z,99352.69
2022-11-22T23:26:24.695Z,99356.34
2022-11-22T23:31:28.945Z,99360.16
2022-11-22T23:36:35.964Z,99357.38
2022-11-22T23:41:40.073Z,99357.97
2022-11-22T23:46:43.943Z,99366.16
2022-11-22T23:51:47.444Z,99365.88
2022-11-22T23:56:50.058Z,99365.63
